TAF Text Data
IDs:
Format:
Raw Decoded Include METAR

Data at: 2004 UTC 21 Sep 2021

KISO 211744Z 2118/2218 13012G20KT P6SM BKN035
  FM212000 13009G15KT P6SM VCTS BKN040CB
  FM220600 12007KT 6SM -SHRA BKN018
  FM221500 16010G17KT 6SM -SHRA OVC015 AMD LTD TO CLD VIS AND WIND